aviador You're here:

KJAN Decoded Metar

JACKSON in MS, USA
Report Time2017-11-25 06:54:00
UTC Time2017-11-25 07:45:17
Flight Rules vfr VFR
WindCalm
Visibility9999 m
Phenomena:N/A
Clouds:N/A
Expected CloudBase > 2,000 ft AGL from Temp-Dew spread
CeilingNone
Temp06°C (ISA -8)
Dew Point01°C (71% RH)
AAT4.2°C
QNH1015 hPa
Density Alt-692 ft
Elevation299 ft
Report Wrong Elevation
Raw Report
KJAN 250654Z 00000KT 10SM CLR 06/01 A2996 RMK AO2 SLP144
T00560011=

Extra information for KJAN:More info

Metar Taf Metar & Taf Last 4 Metars F.Rules Stats Wind Profile Meteogram Temp Stats Airport Information Weather charts Add Link Nearby VenuesMetar ALERT Operation Metar Decoded Social comments

AIRNAV info for KJAN